Observations for Trim Patrick St
| Time | AQI | Temp °C | Hum % | Pres Pa | CO μg/m³ | H₂S μg/m³ | NO μg/m³ | NO₂ μg/m³ | O₃ μg/m³ | SO₂ μg/m³ | PM1 μg/m³ | PM2.5 μg/m³ | PM10 μg/m³ |
|---|---|---|---|---|---|---|---|---|---|---|---|---|---|
| Friday 28 August 2026 | |||||||||||||
| 05:59 | 3 | 16.1 | 89 | 38,459 | 0.21 | 3.54 | 2.61 | 4.47 | 35.34 | 0 | 12.29 | 18.96 | 20.85 |
| 05:58 | 3 | 16.1 | 89 | 38,459 | 0.26 | 4.01 | 2.6 | 12.94 | 23.8 | 0 | 10.57 | 16.22 | 17.84 |
| 05:57 | 3 | 16.1 | 89 | 38,459 | 0.24 | 2.55 | 2.57 | 8.04 | 30.56 | 0.51 | 12.29 | 17.6 | 19.35 |
| 05:54 | 3 | 16.1 | 89 | 38,459 | 0.19 | 2.31 | 2.49 | 2.97 | 32.92 | 0 | 9.71 | 14.87 | 16.36 |
| 05:53 | 3 | 16.1 | 89 | 38,459 | 0.19 | 2.36 | 2.46 | 2.82 | 39.59 | 0 | 12.29 | 17.6 | 19.35 |
| 05:49 | 3 | 16.1 | 89 | 38,459 | 0.19 | 2.23 | 2.43 | 15.89 | 20.33 | 0 | 10.57 | 16.91 | 18.61 |
| 05:48 | 3 | 16.1 | 89 | 38,459 | 0.19 | 2.1 | 2.43 | 15.17 | 23.76 | 0 | 12.29 | 17.6 | 19.35 |
| 05:47 | 3 | 16.1 | 89 | 38,459 | 0.18 | 2.73 | 2.89 | 15.74 | 23.29 | 0 | 12.29 | 17.6 | 19.35 |
| 05:46 | 3 | 16.1 | 89 | 38,459 | 0.21 | 2.7 | 2.32 | 21.44 | 16.58 | 0 | 11.43 | 16.92 | 18.62 |
| 05:45 | 3 | 16.1 | 89 | 38,459 | 0.2 | 1.79 | 2.1 | 17.02 | 18.21 | 0 | 12.29 | 18.29 | 20.12 |
| 05:44 | 3 | 16.1 | 89 | 38,459 | 0.19 | 2.23 | 1.68 | 15.57 | 23.19 | 0 | 11.43 | 16.92 | 18.62 |
| 05:43 | 3 | 16.1 | 89 | 38,459 | 0.18 | 2.86 | 1.85 | 24.95 | 16.06 | 0 | 8.86 | 16.92 | 18.62 |
| 05:42 | 3 | 16.1 | 89 | 38,459 | 0.18 | 1.82 | 1.72 | 14.02 | 26.66 | 0 | 10.57 | 15.57 | 17.13 |
| 05:41 | 3 | 16.1 | 89 | 38,459 | 0.18 | 3.8 | 1.83 | 21.7 | 20.86 | 0 | 12.29 | 16.25 | 17.88 |
| 05:40 | 3 | 16.1 | 89 | 38,459 | 0.18 | 2.88 | 1.92 | 19.73 | 19.96 | 0 | 11.43 | 19.66 | 21.63 |
| 05:39 | 3 | 16.1 | 89 | 38,459 | 0.18 | 2 | 2.61 | 15.29 | 21.16 | 0 | 11.43 | 17.62 | 19.38 |
| 05:38 | 3 | 16.1 | 89 | 38,459 | 0.2 | 2.34 | 2.04 | 15.56 | 22.31 | 0 | 10.57 | 16.93 | 18.63 |
| 05:37 | 3 | 16.1 | 89 | 38,459 | 0.16 | 2.65 | 2.1 | 16.48 | 22.18 | 0 | 12.29 | 16.25 | 17.88 |
| 05:36 | 3 | 16.1 | 89 | 38,459 | 0.19 | 1.68 | 2.3 | 15.43 | 20.35 | 0 | 14 | 18.98 | 20.88 |
| 05:35 | 3 | 16.1 | 89 | 38,459 | 0.18 | 1.35 | 2.51 | 14.15 | 25.03 | 0 | 11.43 | 16.25 | 17.88 |